Waldo, Florida
Current Conditions -  °F | °C
As of 7:15 AM on Monday 24 Nov 2014 (Local Time) from K42J Reporting Station
Scattered Clouds Scattered Clouds  
Wind Chill: 72°   Ceiling: Unl
Heat Index: 72°   Visibility: 5mi
Dew Point: 72°   Wind: 9mph
Humidity: 100%   Direction: 200°SSW
Pressure: 29.93"   Gusts: NA
Location:  29.79°N, 82.17°W
Report Text: K42J 241215Z AUTO 20008KT 5SM SCT022 22/22 A2993 RMK AO1 TSNO
Loading
Personal Weather Stations






























Interactive Weather Map New forecast layout! Learn more

10-Day Weather Forecast

Advertisements
Track Severe Weather on mobile